createdAt,value
2019-02-15T00:00:21.655Z,38.43
2019-02-15T00:02:50.373Z,41.97
2019-02-15T00:05:19.032Z,37.43
2019-02-15T00:07:47.725Z,37.47
2019-02-15T00:10:16.290Z,42.00
2019-02-15T00:12:45.001Z,37.33
2019-02-15T00:15:13.661Z,40.73
2019-02-15T00:17:52.803Z,48.13
2019-02-15T00:20:39.031Z,49.33
2019-02-15T00:23:07.648Z,43.97
2019-02-15T00:25:36.409Z,44.73
2019-02-15T00:28:05.102Z,48.23
2019-02-15T00:30:33.803Z,41.10
2019-02-15T00:33:02.458Z,50.03
2019-02-15T00:35:31.157Z,40.37
2019-02-15T00:37:59.800Z,43.50
2019-02-15T00:40:28.519Z,39.57
2019-02-15T00:42:57.096Z,43.80
2019-02-15T00:45:27.471Z,46.77
2019-02-15T00:48:00.307Z,43.23
2019-02-15T00:50:30.599Z,45.37
2019-02-15T00:53:03.687Z,41.27
2019-02-15T00:55:36.722Z,43.60
2019-02-15T00:58:07.495Z,48.67
2019-02-15T01:00:40.384Z,44.50
2019-02-15T01:03:16.646Z,44.37
2019-02-15T01:05:59.070Z,47.27
2019-02-15T01:08:35.356Z,43.00
2019-02-15T01:11:06.559Z,39.43
2019-02-15T01:13:35.209Z,41.00
2019-02-15T01:16:03.855Z,37.77
2019-02-15T01:18:32.546Z,42.17
2019-02-15T01:21:01.115Z,37.83
2019-02-15T01:23:29.791Z,38.83
2019-02-15T01:26:00.176Z,39.37
2019-02-15T01:28:33.423Z,37.23
2019-02-15T01:31:20.043Z,43.00
2019-02-15T01:33:59.987Z,36.73
2019-02-15T01:36:30.225Z,42.30
2019-02-15T01:39:00.460Z,41.07
2019-02-15T01:41:48.152Z,39.73
2019-02-15T01:44:18.373Z,44.67
2019-02-15T01:46:51.416Z,39.33
2019-02-15T01:49:20.170Z,41.93
2019-02-15T01:51:48.745Z,39.10
2019-02-15T01:54:17.458Z,37.50
2019-02-15T01:56:46.031Z,37.60
2019-02-15T01:59:14.618Z,38.43
2019-02-15T02:01:43.274Z,39.10
2019-02-15T02:04:11.970Z,42.23
2019-02-15T02:06:40.656Z,40.40
2019-02-15T02:09:09.401Z,39.27
2019-02-15T02:11:38.091Z,36.97
2019-02-15T02:14:06.711Z,35.60
2019-02-15T02:16:35.344Z,34.83
2019-02-15T02:19:04.026Z,40.60
2019-02-15T02:21:32.726Z,38.27
2019-02-15T02:24:01.297Z,38.93
2019-02-15T02:26:29.947Z,37.83
2019-02-15T02:28:58.521Z,37.73
2019-02-15T02:31:27.174Z,41.77
2019-02-15T02:33:55.818Z,48.13
2019-02-15T02:36:36.360Z,49.40
2019-02-15T02:39:05.561Z,52.83
2019-02-15T02:41:37.835Z,44.70
2019-02-15T02:44:06.435Z,41.63
2019-02-15T02:46:34.924Z,44.30
2019-02-15T02:49:03.533Z,41.10
2019-02-15T02:51:32.079Z,40.70
2019-02-15T02:54:00.709Z,40.50
2019-02-15T02:56:29.330Z,41.30
2019-02-15T02:58:57.942Z,42.57
2019-02-15T03:01:26.573Z,46.17
2019-02-15T03:03:55.114Z,43.83
2019-02-15T03:06:23.668Z,40.50
2019-02-15T03:08:52.284Z,43.90
2019-02-15T03:11:20.891Z,32.23
2019-02-15T03:13:49.569Z,38.10
2019-02-15T03:16:18.134Z,36.13
2019-02-15T03:18:46.734Z,38.20
2019-02-15T03:21:19.670Z,38.70
2019-02-15T03:23:48.182Z,40.60
2019-02-15T03:26:16.861Z,29.47
2019-02-15T03:28:45.425Z,28.83
2019-02-15T03:31:14.040Z,30.10
2019-02-15T03:33:42.608Z,31.83
2019-02-15T03:36:12.876Z,29.57
2019-02-15T03:38:43.021Z,33.97
2019-02-15T03:41:28.702Z,38.73
2019-02-15T03:43:57.393Z,39.17
2019-02-15T03:46:26.238Z,39.40
2019-02-15T03:48:54.878Z,38.60
2019-02-15T03:51:23.441Z,34.20
2019-02-15T03:53:52.143Z,39.77
2019-02-15T03:56:20.763Z,36.30
2019-02-15T03:58:49.439Z,35.20
2019-02-15T04:01:18.078Z,36.67
2019-02-15T04:03:46.770Z,34.03
2019-02-15T04:06:15.299Z,35.10
2019-02-15T04:08:43.904Z,31.97
2019-02-15T04:11:12.477Z,30.20
2019-02-15T04:13:41.183Z,37.60
2019-02-15T04:16:09.905Z,32.33
2019-02-15T04:18:38.597Z,31.00
2019-02-15T04:21:07.160Z,29.60
2019-02-15T04:23:38.597Z,30.50
2019-02-15T04:26:07.149Z,30.40
2019-02-15T04:28:35.753Z,31.97
2019-02-15T04:31:04.455Z,31.43
2019-02-15T04:33:32.918Z,37.03
2019-02-15T04:36:07.530Z,39.40
2019-02-15T04:38:36.181Z,39.57
2019-02-15T04:41:04.867Z,37.37
2019-02-15T04:43:33.538Z,35.40
2019-02-15T04:46:02.107Z,39.20
2019-02-15T04:48:30.690Z,45.03
2019-02-15T04:50:59.346Z,41.37
2019-02-15T04:53:28.078Z,40.90
2019-02-15T04:55:56.738Z,37.90
2019-02-15T04:58:25.340Z,33.37
2019-02-15T05:00:54.040Z,35.13
2019-02-15T05:03:22.760Z,28.53
2019-02-15T05:05:51.441Z,29.10
2019-02-15T05:08:20.123Z,32.43
2019-02-15T05:10:48.765Z,26.03
2019-02-15T05:13:22.073Z,24.20
2019-02-15T05:15:50.706Z,23.27
2019-02-15T05:18:19.299Z,24.60
2019-02-15T05:20:47.977Z,26.13
2019-02-15T05:23:16.627Z,21.83
2019-02-15T05:25:45.282Z,21.40
2019-02-15T05:28:13.967Z,25.77
2019-02-15T05:30:42.537Z,25.93
2019-02-15T05:33:11.156Z,28.50
2019-02-15T05:35:39.865Z,31.87
2019-02-15T05:38:08.535Z,29.93
2019-02-15T05:40:37.267Z,36.07
2019-02-15T05:43:05.862Z,48.20
2019-02-15T05:45:37.554Z,76.77
2019-02-15T05:48:06.165Z,68.87
2019-02-15T05:50:34.794Z,56.17
2019-02-15T05:53:03.426Z,50.07
2019-02-15T05:55:31.923Z,63.90
2019-02-15T05:58:01.742Z,61.13
2019-02-15T06:00:37.000Z,63.87
2019-02-15T06:03:00.692Z,84.80
2019-02-15T06:05:29.226Z,282.60
2019-02-15T06:07:58.083Z,69.87
2019-02-15T06:10:29.919Z,142.97
2019-02-15T06:12:58.705Z,167.00
2019-02-15T06:15:27.448Z,91.47
2019-02-15T06:18:09.155Z,56.20
2019-02-15T06:20:37.865Z,56.80
2019-02-15T06:23:08.086Z,34.53
2019-02-15T06:25:37.101Z,34.27
2019-02-15T06:28:05.995Z,36.80
2019-02-15T06:30:34.922Z,29.93
2019-02-15T06:33:03.873Z,32.43
2019-02-15T06:35:33.189Z,45.67
2019-02-15T06:38:03.432Z,41.80
2019-02-15T06:40:32.254Z,37.73
2019-02-15T06:43:01.047Z,39.50
2019-02-15T06:45:30.076Z,37.50
2019-02-15T06:47:59.081Z,28.73
2019-02-15T06:50:28.855Z,28.83
2019-02-15T06:52:57.597Z,26.77
2019-02-15T06:55:26.348Z,29.00
2019-02-15T06:57:55.142Z,29.07
2019-02-15T07:00:43.078Z,28.87
2019-02-15T07:03:29.522Z,25.63
2019-02-15T07:06:04.018Z,26.80
2019-02-15T07:08:33.385Z,38.03
2019-02-15T07:11:07.578Z,40.73
2019-02-15T07:13:36.457Z,43.90
2019-02-15T07:16:05.184Z,47.73
2019-02-15T07:18:33.958Z,32.70
2019-02-15T07:21:02.680Z,33.20
2019-02-15T07:23:34.341Z,34.77
2019-02-15T07:26:04.319Z,32.33
2019-02-15T07:28:33.137Z,40.07
2019-02-15T07:31:01.929Z,39.63
2019-02-15T07:33:30.782Z,30.83
2019-02-15T07:35:59.470Z,30.47
2019-02-15T07:38:28.622Z,24.50
2019-02-15T07:41:04.697Z,22.37
2019-02-15T07:43:34.039Z,30.97
2019-02-15T07:46:02.594Z,30.07
2019-02-15T07:48:31.284Z,26.87
2019-02-15T07:51:09.132Z,24.67
2019-02-15T07:53:30.272Z,19.47
2019-02-15T07:55:58.980Z,20.13
2019-02-15T07:58:27.463Z,21.13
2019-02-15T08:00:56.618Z,21.47
2019-02-15T08:03:25.236Z,20.07
2019-02-15T08:05:53.991Z,23.23
2019-02-15T08:08:25.690Z,19.23
2019-02-15T08:10:54.331Z,18.43
2019-02-15T08:13:26.030Z,22.67
2019-02-15T08:15:54.886Z,22.57
2019-02-15T08:18:23.785Z,25.23
2019-02-15T08:20:54.301Z,29.00
2019-02-15T08:23:23.306Z,21.33
2019-02-15T08:25:52.241Z,29.23
2019-02-15T08:28:27.775Z,18.07
2019-02-15T08:31:00.216Z,21.50
2019-02-15T08:36:20.445Z,22.13
2019-02-15T08:38:49.328Z,25.00
2019-02-15T08:41:21.263Z,33.33
2019-02-15T08:44:00.431Z,46.83
2019-02-15T08:46:35.741Z,16.87
2019-02-15T08:49:05.633Z,27.27
2019-02-15T08:51:34.319Z,38.70
2019-02-15T08:54:05.202Z,22.37
2019-02-15T08:56:38.574Z,22.90
2019-02-15T08:59:08.848Z,20.57
2019-02-15T09:01:41.421Z,27.83
2019-02-15T09:04:12.524Z,18.73
2019-02-15T09:06:42.699Z,24.70
2019-02-15T09:09:13.452Z,33.47
2019-02-15T09:11:42.102Z,28.57
2019-02-15T09:14:13.560Z,34.83
2019-02-15T09:16:42.285Z,37.27
2019-02-15T09:19:10.995Z,33.70
2019-02-15T09:21:39.882Z,17.30
2019-02-15T09:24:08.613Z,28.33
2019-02-15T09:26:37.507Z,33.00
2019-02-15T09:29:11.820Z,19.57
2019-02-15T09:31:45.641Z,11.60
2019-02-15T09:34:14.502Z,25.63
2019-02-15T09:36:43.308Z,23.23
2019-02-15T09:39:12.046Z,33.90
2019-02-15T09:41:40.620Z,28.73
2019-02-15T09:44:09.311Z,22.87
2019-02-15T09:46:37.924Z,13.60
2019-02-15T09:49:06.708Z,9.60
2019-02-15T09:51:37.489Z,9.70
2019-02-15T09:54:06.871Z,11.67
2019-02-15T09:56:35.648Z,7.90
2019-02-15T09:59:04.274Z,8.63
2019-02-15T10:01:34.950Z,10.00
2019-02-15T10:04:03.837Z,14.47
2019-02-15T10:06:32.403Z,6.43
2019-02-15T10:09:00.997Z,9.43
2019-02-15T10:11:32.377Z,8.60
2019-02-15T10:14:03.857Z,9.00
2019-02-15T10:16:32.468Z,9.43
2019-02-15T10:19:01.131Z,6.50
2019-02-15T10:21:29.681Z,8.17
2019-02-15T10:23:59.049Z,8.37
2019-02-15T10:26:28.277Z,7.70
2019-02-15T10:28:57.446Z,6.53
2019-02-15T10:31:26.199Z,10.43
2019-02-15T10:33:55.077Z,7.97
2019-02-15T10:36:23.850Z,11.57
2019-02-15T10:38:52.687Z,19.77
2019-02-15T10:41:21.325Z,27.97
2019-02-15T10:43:49.986Z,6.33
2019-02-15T10:46:18.935Z,8.10
2019-02-15T10:48:50.663Z,9.87
2019-02-15T10:51:21.156Z,15.10
2019-02-15T10:53:50.332Z,12.07
2019-02-15T10:56:19.053Z,4.87
2019-02-15T10:58:47.769Z,7.93
2019-02-15T11:01:16.571Z,7.93
2019-02-15T11:03:45.350Z,5.20
2019-02-15T11:06:14.081Z,9.40
2019-02-15T11:08:42.848Z,9.03
2019-02-15T11:11:11.534Z,8.83
2019-02-15T11:13:43.800Z,6.20
2019-02-15T11:16:15.739Z,8.23
2019-02-15T11:18:44.568Z,8.63
2019-02-15T11:21:13.276Z,10.53
2019-02-15T11:23:42.021Z,9.83
2019-02-15T11:26:10.824Z,10.57
2019-02-15T11:28:39.523Z,8.17
2019-02-15T11:31:08.278Z,7.03
2019-02-15T11:33:37.042Z,10.53
2019-02-15T11:36:05.777Z,12.57
2019-02-15T11:38:34.569Z,15.97
2019-02-15T11:41:10.926Z,12.57
2019-02-15T11:43:34.861Z,8.10
2019-02-15T11:46:03.635Z,12.63
2019-02-15T11:48:32.343Z,9.47
2019-02-15T11:51:01.480Z,8.60
2019-02-15T11:53:30.168Z,7.90
2019-02-15T11:55:58.835Z,7.53
2019-02-15T11:58:27.504Z,10.53
2019-02-15T12:00:56.282Z,9.20
2019-02-15T12:03:25.032Z,10.07
2019-02-15T12:05:53.923Z,7.27
2019-02-15T12:08:22.606Z,6.87
2019-02-15T12:10:51.265Z,8.40
2019-02-15T12:13:20.699Z,9.97
2019-02-15T12:15:49.503Z,15.33
2019-02-15T12:18:24.202Z,15.43
2019-02-15T12:20:52.857Z,9.67
2019-02-15T12:23:21.617Z,14.13
2019-02-15T12:25:50.373Z,25.50
2019-02-15T12:28:19.475Z,25.33
2019-02-15T12:30:48.606Z,22.87
2019-02-15T12:33:17.273Z,13.57
2019-02-15T12:35:46.068Z,25.00
2019-02-15T12:38:15.485Z,18.63
2019-02-15T12:40:45.593Z,12.60
2019-02-15T12:43:14.221Z,15.85
2019-02-15T12:45:43.057Z,17.33
2019-02-15T12:48:12.387Z,7.47
2019-02-15T12:50:50.532Z,7.63
2019-02-15T12:53:19.318Z,7.00
2019-02-15T12:55:47.962Z,7.70
2019-02-15T12:58:17.184Z,4.17
2019-02-15T13:00:46.276Z,5.33
2019-02-15T13:03:14.974Z,8.00
2019-02-15T13:05:43.600Z,12.93
2019-02-15T13:08:12.213Z,10.50
2019-02-15T13:10:42.249Z,15.30
2019-02-15T13:13:11.214Z,10.47
2019-02-15T13:15:39.929Z,14.97
2019-02-15T13:18:08.620Z,11.73
2019-02-15T13:20:37.345Z,16.47
2019-02-15T13:23:06.204Z,23.40
2019-02-15T13:25:36.855Z,18.87
2019-02-15T13:28:05.370Z,14.57
2019-02-15T13:30:34.096Z,22.30
2019-02-15T13:33:02.925Z,17.40
2019-02-15T13:35:31.617Z,14.00
2019-02-15T13:38:00.330Z,16.47
2019-02-15T13:40:29.077Z,17.50
2019-02-15T13:42:57.780Z,28.93
2019-02-15T13:45:26.479Z,14.27
2019-02-15T13:47:55.149Z,21.17
2019-02-15T13:50:25.220Z,38.20
2019-02-15T13:52:53.865Z,17.33
2019-02-15T13:55:22.695Z,20.50
2019-02-15T13:57:52.000Z,14.10
2019-02-15T14:00:20.875Z,17.13
2019-02-15T14:02:49.607Z,13.90
2019-02-15T14:05:18.297Z,17.43
2019-02-15T14:07:47.079Z,83.93
2019-02-15T14:10:16.041Z,34.90
2019-02-15T14:12:44.760Z,39.03
2019-02-15T14:15:13.846Z,35.43
2019-02-15T14:17:46.299Z,33.83
2019-02-15T14:20:16.410Z,47.77
2019-02-15T14:22:45.059Z,37.60
2019-02-15T14:25:13.751Z,45.13
2019-02-15T14:27:42.431Z,45.47
2019-02-15T14:30:14.730Z,36.80
2019-02-15T14:32:43.372Z,42.87
2019-02-15T14:35:13.715Z,44.57
2019-02-15T14:37:42.417Z,41.40
2019-02-15T14:40:12.174Z,48.60
2019-02-15T14:42:40.843Z,44.63
2019-02-15T14:45:15.361Z,37.93
2019-02-15T14:47:54.935Z,54.67
2019-02-15T14:50:20.274Z,52.50
2019-02-15T14:52:48.807Z,67.80
2019-02-15T14:55:17.376Z,79.73
2019-02-15T14:57:46.606Z,52.50
2019-02-15T15:00:16.052Z,46.57
2019-02-15T15:02:44.671Z,69.13
2019-02-15T15:05:15.086Z,99.80
2019-02-15T15:07:43.970Z,85.33
2019-02-15T15:10:12.818Z,77.20
2019-02-15T15:12:43.922Z,58.20
2019-02-15T15:15:18.599Z,52.57
2019-02-15T15:17:47.151Z,46.70
2019-02-15T15:20:18.442Z,46.53
2019-02-15T15:22:47.023Z,48.53
2019-02-15T15:25:16.150Z,47.93
2019-02-15T15:27:45.128Z,47.10
2019-02-15T15:30:17.159Z,38.00
2019-02-15T15:32:45.773Z,32.50
2019-02-15T15:35:17.380Z,48.73
2019-02-15T15:37:46.045Z,54.00
2019-02-15T15:40:16.780Z,60.07
2019-02-15T15:42:45.338Z,42.27
2019-02-15T15:45:16.736Z,55.00
2019-02-15T15:47:45.436Z,62.73
2019-02-15T15:50:14.243Z,36.57
2019-02-15T15:52:43.429Z,26.70
2019-02-15T15:55:13.498Z,25.90
2019-02-15T15:57:42.228Z,33.97
2019-02-15T16:00:13.612Z,67.00
2019-02-15T16:02:42.186Z,68.80
2019-02-15T16:05:11.194Z,47.27
2019-02-15T16:07:40.374Z,35.57
2019-02-15T16:10:16.924Z,56.33
2019-02-15T16:12:45.512Z,82.67
2019-02-15T16:15:14.790Z,48.73
2019-02-15T16:17:43.384Z,45.07
2019-02-15T16:20:21.184Z,29.30
2019-02-15T16:22:49.989Z,19.53
2019-02-15T16:25:18.670Z,27.43
2019-02-15T16:27:47.374Z,26.20
2019-02-15T16:30:16.477Z,28.63
2019-02-15T16:32:45.162Z,33.50
2019-02-15T16:35:14.063Z,26.40
2019-02-15T16:37:42.761Z,26.90
2019-02-15T16:40:16.109Z,31.83
2019-02-15T16:42:45.000Z,29.13
2019-02-15T16:45:15.007Z,30.60
2019-02-15T16:47:43.879Z,22.40
2019-02-15T16:50:13.202Z,29.83
2019-02-15T16:52:41.808Z,35.43
2019-02-15T16:55:13.237Z,19.67
2019-02-15T16:57:41.085Z,24.00
2019-02-15T17:00:12.164Z,27.47
2019-02-15T17:02:40.789Z,18.57
2019-02-15T17:05:09.746Z,21.03
2019-02-15T17:07:38.393Z,32.67
2019-02-15T17:10:09.278Z,46.07
2019-02-15T17:12:45.269Z,21.67
2019-02-15T17:15:15.017Z,28.27
2019-02-15T17:17:43.622Z,26.87
2019-02-15T17:20:12.284Z,22.03
2019-02-15T17:22:41.178Z,23.97
2019-02-15T17:25:11.667Z,22.53
2019-02-15T17:27:40.297Z,27.60
2019-02-15T17:30:10.972Z,23.67
2019-02-15T17:32:39.628Z,23.23
2019-02-15T17:35:13.159Z,30.37
2019-02-15T17:37:41.799Z,17.10
2019-02-15T17:40:16.706Z,27.80
2019-02-15T17:42:45.401Z,31.23
2019-02-15T17:45:14.986Z,31.67
2019-02-15T17:47:46.964Z,48.27
2019-02-15T17:50:20.190Z,50.40
2019-02-15T17:52:48.763Z,26.60
2019-02-15T17:55:20.231Z,24.83
2019-02-15T17:57:48.913Z,24.30
2019-02-15T18:00:19.439Z,28.13
2019-02-15T18:02:48.284Z,28.23
2019-02-15T18:05:16.870Z,29.87
2019-02-15T18:07:47.103Z,30.00
2019-02-15T18:10:15.707Z,30.33
2019-02-15T18:12:44.341Z,37.40
2019-02-15T18:15:13.016Z,28.47
2019-02-15T18:17:42.240Z,34.33
2019-02-15T18:20:11.274Z,28.77
2019-02-15T18:22:39.824Z,41.67
2019-02-15T18:25:09.160Z,41.87
2019-02-15T18:27:37.844Z,47.17
2019-02-15T18:30:09.734Z,34.93
2019-02-15T18:32:38.424Z,22.73
2019-02-15T18:35:07.724Z,27.07
2019-02-15T18:37:36.417Z,27.10
2019-02-15T18:40:07.922Z,28.70
2019-02-15T18:42:36.611Z,25.87
2019-02-15T18:45:07.699Z,19.37
2019-02-15T18:47:36.425Z,22.57
2019-02-15T18:50:07.480Z,28.60
2019-02-15T18:52:35.984Z,25.53
2019-02-15T18:55:05.564Z,28.73
2019-02-15T18:57:34.198Z,21.93
2019-02-15T19:00:02.937Z,28.87
2019-02-15T19:02:31.618Z,29.43
2019-02-15T19:05:03.356Z,41.83
2019-02-15T19:07:32.045Z,32.70
2019-02-15T19:10:00.843Z,26.63
2019-02-15T19:12:29.474Z,19.10
2019-02-15T19:14:58.130Z,17.50
2019-02-15T19:17:26.649Z,19.63
2019-02-15T19:19:55.728Z,19.00
2019-02-15T19:22:25.140Z,29.87
2019-02-15T19:24:53.838Z,21.67
2019-02-15T19:27:22.478Z,18.03
2019-02-15T19:29:51.262Z,19.73
2019-02-15T19:32:19.959Z,24.13
2019-02-15T19:34:48.656Z,20.57
2019-02-15T19:37:17.361Z,20.40
2019-02-15T19:39:46.025Z,21.60
2019-02-15T19:42:14.635Z,19.67
2019-02-15T19:44:46.529Z,27.10
2019-02-15T19:47:22.163Z,27.90
2019-02-15T19:49:55.428Z,30.47
2019-02-15T19:52:24.201Z,25.60
2019-02-15T19:54:52.764Z,35.67
2019-02-15T19:57:21.319Z,38.00
2019-02-15T19:59:53.619Z,48.33
2019-02-15T20:02:21.737Z,72.93
2019-02-15T20:04:50.650Z,66.63
2019-02-15T20:07:19.406Z,51.20
2019-02-15T20:09:48.086Z,56.43
2019-02-15T20:12:16.714Z,56.43
2019-02-15T20:14:45.402Z,76.37
2019-02-15T20:17:14.049Z,70.23
2019-02-15T20:19:48.677Z,63.93
2019-02-15T20:22:13.094Z,57.00
2019-02-15T20:24:41.736Z,48.10
2019-02-15T20:27:10.349Z,50.83
2019-02-15T20:29:38.984Z,71.57
2019-02-15T20:32:07.672Z,71.97
2019-02-15T20:34:45.187Z,71.47
2019-02-15T20:37:09.094Z,67.20
2019-02-15T20:39:38.454Z,61.97
2019-02-15T20:42:07.105Z,57.67
2019-02-15T20:44:35.603Z,52.03
2019-02-15T20:47:04.287Z,50.47
2019-02-15T20:49:33.349Z,46.83
2019-02-15T20:52:02.020Z,41.93
2019-02-15T20:54:33.581Z,39.93
2019-02-15T20:57:02.866Z,39.60
2019-02-15T20:59:31.380Z,53.53
2019-02-15T21:01:59.947Z,49.50
2019-02-15T21:04:28.558Z,42.97
2019-02-15T21:06:57.893Z,37.40
2019-02-15T21:09:27.124Z,53.30
2019-02-15T21:11:55.691Z,48.17
2019-02-15T21:14:24.299Z,63.93
2019-02-15T21:16:53.559Z,72.13
2019-02-15T21:19:22.242Z,86.57
2019-02-15T21:21:50.769Z,84.37
2019-02-15T21:24:19.250Z,55.80
2019-02-15T21:26:47.823Z,54.57
2019-02-15T21:29:16.745Z,53.77
2019-02-15T21:31:45.283Z,48.13
2019-02-15T21:34:13.984Z,53.97
2019-02-15T21:36:42.661Z,66.73
2019-02-15T21:39:11.299Z,60.83
2019-02-15T21:41:39.984Z,57.20
2019-02-15T21:44:08.545Z,46.63
2019-02-15T21:46:40.290Z,44.57
2019-02-15T21:49:08.905Z,42.43
2019-02-15T21:51:37.529Z,41.47
2019-02-15T21:54:06.158Z,35.23
2019-02-15T21:56:34.842Z,39.07
2019-02-15T21:59:03.339Z,44.40
2019-02-15T22:01:32.017Z,43.63
2019-02-15T22:04:00.912Z,39.83
2019-02-15T22:06:29.606Z,46.07
2019-02-15T22:08:58.083Z,49.00
2019-02-15T22:11:26.702Z,49.23
2019-02-15T22:13:58.183Z,47.93
2019-02-15T22:16:26.747Z,51.70
2019-02-15T22:18:55.293Z,55.83
2019-02-15T22:21:23.837Z,52.00
2019-02-15T22:23:52.529Z,50.13
2019-02-15T22:26:21.090Z,45.70
2019-02-15T22:28:49.688Z,44.27
2019-02-15T22:31:18.325Z,48.27
2019-02-15T22:33:46.946Z,46.83
2019-02-15T22:36:15.588Z,46.03
2019-02-15T22:38:44.066Z,46.00
2019-02-15T22:41:14.356Z,44.43
2019-02-15T22:43:43.617Z,47.63
2019-02-15T22:46:12.303Z,44.37
2019-02-15T22:48:40.975Z,46.70
2019-02-15T22:51:09.590Z,48.47
2019-02-15T22:53:38.200Z,43.77
2019-02-15T22:56:06.845Z,41.30
2019-02-15T22:58:35.783Z,47.20
2019-02-15T23:01:07.224Z,42.20
2019-02-15T23:03:35.846Z,41.07
2019-02-15T23:06:07.301Z,41.30
2019-02-15T23:08:35.901Z,42.00
2019-02-15T23:11:05.635Z,48.40
2019-02-15T23:13:34.326Z,42.93
2019-02-15T23:16:02.964Z,39.33
2019-02-15T23:18:31.595Z,40.77
2019-02-15T23:21:00.207Z,39.47
2019-02-15T23:23:28.690Z,45.93
2019-02-15T23:25:57.290Z,41.80
2019-02-15T23:28:25.851Z,52.93
2019-02-15T23:30:54.536Z,136.07
2019-02-15T23:33:23.022Z,166.03
2019-02-15T23:35:51.652Z,86.97
2019-02-15T23:38:20.196Z,72.30
2019-02-15T23:40:48.754Z,55.00
2019-02-15T23:43:17.361Z,59.87
2019-02-15T23:45:45.993Z,59.10
2019-02-15T23:48:14.679Z,62.73
2019-02-15T23:50:43.382Z,59.23
2019-02-15T23:53:12.057Z,42.37
2019-02-15T23:55:40.693Z,34.40
2019-02-15T23:58:09.407Z,48.70
